Time;durP1;ratioP1;P1;durP2;ratioP2;P2;SDS_P1;SDS_P2;PMS_P1;PMS_P2;Temp;Humidity;BMP_temperature;BMP_pressure;BME280_temperature;BME280_humidity;BME280_pressure;Samples;Min_cycle;Max_cycle;Signal;HPM_P1;HPM_P2
2023/05/16 00:00:35;;;;;;;16.67;13.40;;;;;;;11.16;100.00;97838.41;5073736;28;20231;-80
2023/05/16 00:03:02;;;;;;;18.63;14.30;;;;;;;11.21;100.00;97838.03;5074167;28;20207;-81
2023/05/16 00:05:29;;;;;;;19.80;13.33;;;;;;;11.16;100.00;97829.63;5074073;28;20632;-81
2023/05/16 00:07:55;;;;;;;18.33;13.97;;;;;;;11.16;100.00;97834.91;5074152;28;20204;-81
2023/05/16 00:10:23;;;;;;;18.10;14.13;;;;;;;11.17;100.00;97828.66;5073647;28;20239;-81
2023/05/16 00:12:50;;;;;;;17.80;13.63;;;;;;;11.16;100.00;97824.31;5073887;28;20575;-81
2023/05/16 00:15:19;;;;;;;19.33;14.40;;;;;;;11.15;100.00;97827.94;5074114;28;20305;-81
2023/05/16 00:17:46;;;;;;;21.10;14.37;;;;;;;11.13;100.00;97829.84;5073725;28;20281;-81
2023/05/16 00:20:16;;;;;;;18.50;14.80;;;;;;;11.15;100.00;97833.22;5073674;28;20258;-81
2023/05/16 00:22:42;;;;;;;22.93;15.60;;;;;;;11.14;100.00;97826.25;5073886;28;20318;-81
2023/05/16 00:25:09;;;;;;;18.73;14.63;;;;;;;11.14;100.00;97829.72;5073424;28;20232;-81
2023/05/16 00:27:37;;;;;;;20.90;15.00;;;;;;;11.14;100.00;97827.06;5073848;28;20223;-81
2023/05/16 00:30:05;;;;;;;20.67;14.50;;;;;;;11.20;100.00;97825.78;5073622;28;20509;-81
2023/05/16 00:32:31;;;;;;;20.27;15.17;;;;;;;11.19;100.00;97824.94;5074020;28;20211;-81
2023/05/16 00:34:58;;;;;;;19.73;14.90;;;;;;;11.19;100.00;97818.81;5074109;28;20217;-81
2023/05/16 00:37:24;;;;;;;23.27;16.80;;;;;;;11.16;100.00;97813.75;5073595;28;20731;-81
2023/05/16 00:39:51;;;;;;;21.43;16.30;;;;;;;11.20;100.00;97815.19;5073074;28;20241;-81
2023/05/16 00:42:19;;;;;;;22.23;15.97;;;;;;;11.17;100.00;97815.41;5073612;28;20223;-81
2023/05/16 00:44:47;;;;;;;20.97;16.10;;;;;;;11.14;100.00;97818.31;5073520;28;20207;-81
2023/05/16 00:47:14;;;;;;;19.33;15.20;;;;;;;11.11;100.00;97821.19;5073467;28;20210;-81
2023/05/16 00:49:40;;;;;;;20.73;15.53;;;;;;;11.08;100.00;97808.19;5073160;28;20215;-80
2023/05/16 00:52:07;;;;;;;19.80;15.17;;;;;;;11.02;100.00;97808.66;5073324;28;20207;-82
2023/05/16 00:54:34;;;;;;;22.57;16.10;;;;;;;10.99;100.00;97814.19;5073208;28;20214;-79
2023/05/16 00:57:06;;;;;;;21.43;15.57;;;;;;;10.95;100.00;97815.38;5072669;28;20211;-79
2023/05/16 00:59:33;;;;;;;21.07;15.80;;;;;;;10.94;100.00;97813.72;5073104;28;20211;-79
2023/05/16 01:02:02;;;;;;;23.63;16.67;;;;;;;10.91;100.00;97811.28;5070883;28;20227;-81
2023/05/16 01:04:29;;;;;;;21.00;16.73;;;;;;;10.84;100.00;97815.34;5070572;28;20216;-80
2023/05/16 01:06:56;;;;;;;26.23;18.17;;;;;;;10.88;100.00;97814.16;5070283;28;20203;-80
2023/05/16 01:09:23;;;;;;;23.33;17.37;;;;;;;10.86;100.00;97826.63;5070516;28;20215;-81
2023/05/16 01:11:56;;;;;;;24.87;18.07;;;;;;;10.83;100.00;97824.25;5073490;28;20236;-80
2023/05/16 01:14:29;;;;;;;23.50;17.87;;;;;;;10.83;100.00;97822.41;5073260;28;20205;-80
2023/05/16 01:17:05;;;;;;;25.13;17.57;;;;;;;10.81;100.00;97823.50;5072988;28;20208;-80
2023/05/16 01:19:51;;;;;;;20.97;15.80;;;;;;;10.67;100.00;97828.97;5072649;28;20205;-80
2023/05/16 01:22:30;;;;;;;20.53;14.97;;;;;;;10.50;100.00;97818.81;5072881;28;20334;-81
2023/05/16 01:25:06;;;;;;;22.17;16.10;;;;;;;10.42;100.00;97819.38;5073211;28;20195;-81
2023/05/16 01:27:38;;;;;;;26.87;17.57;;;;;;;10.38;100.00;97819.69;5072534;28;20209;-81
2023/05/16 01:30:14;;;;;;;28.83;19.77;;;;;;;10.41;100.00;97822.97;5072843;28;20303;-80
2023/05/16 01:32:41;;;;;;;31.40;21.40;;;;;;;10.46;100.00;97823.47;5072195;28;20249;-80
2023/05/16 01:35:10;;;;;;;30.77;21.13;;;;;;;10.53;100.00;97821.22;5072988;28;20207;-80
2023/05/16 01:37:42;;;;;;;31.00;21.13;;;;;;;10.57;100.00;97820.03;5072419;28;20204;-81
2023/05/16 01:40:16;;;;;;;33.63;22.20;;;;;;;10.66;100.00;97819.38;5072241;28;20575;-77
2023/05/16 01:42:47;;;;;;;34.27;22.70;;;;;;;10.74;100.00;97822.28;5071877;28;20234;-78
2023/05/16 01:45:20;;;;;;;37.03;24.07;;;;;;;10.76;100.00;97809.81;5071812;28;20218;-78
2023/05/16 01:47:52;;;;;;;38.03;25.50;;;;;;;10.77;100.00;97817.59;5071999;28;20351;-78
2023/05/16 01:50:22;;;;;;;33.43;23.20;;;;;;;10.75;100.00;97818.66;5071383;28;20739;-77
2023/05/16 01:52:53;;;;;;;32.43;22.60;;;;;;;10.69;100.00;97813.84;5072011;28;20213;-77
2023/05/16 01:55:29;;;;;;;38.37;23.97;;;;;;;10.72;100.00;97813.63;5071673;28;20679;-76
2023/05/16 01:57:59;;;;;;;39.63;25.43;;;;;;;10.68;100.00;97822.72;5071979;28;20264;-76
2023/05/16 02:00:26;;;;;;;40.47;26.03;;;;;;;10.71;100.00;97812.75;5071481;28;20243;-77
2023/05/16 02:02:52;;;;;;;40.30;26.30;;;;;;;10.76;100.00;97815.09;5071954;28;20237;-78
2023/05/16 02:05:19;;;;;;;38.13;25.80;;;;;;;10.75;100.00;97819.53;5071533;28;20217;-78
2023/05/16 02:07:45;;;;;;;43.00;27.03;;;;;;;10.76;100.00;97821.19;5071880;28;20582;-78
2023/05/16 02:10:13;;;;;;;40.57;25.23;;;;;;;10.83;100.00;97813.66;5070389;28;20253;-78
2023/05/16 02:12:40;;;;;;;40.50;25.27;;;;;;;10.75;100.00;97808.94;5071646;28;20207;-78
2023/05/16 02:15:09;;;;;;;40.60;25.67;;;;;;;10.75;100.00;97808.09;5071651;28;20209;-78
2023/05/16 02:17:36;;;;;;;41.70;26.63;;;;;;;10.71;100.00;97811.94;5071769;28;20216;-78
2023/05/16 02:20:05;;;;;;;43.13;26.67;;;;;;;10.73;100.00;97820.59;5071291;28;20231;-78
2023/05/16 02:22:32;;;;;;;40.17;26.67;;;;;;;10.68;100.00;97822.72;5071483;28;20229;-81
2023/05/16 02:25:00;;;;;;;43.23;27.57;;;;;;;10.61;100.00;97824.13;5071020;28;20211;-75
2023/05/16 02:27:26;;;;;;;44.00;27.90;;;;;;;10.61;100.00;97822.34;5070802;28;20213;-75
2023/05/16 02:29:52;;;;;;;44.23;28.50;;;;;;;10.66;100.00;97827.28;5070609;28;20308;-75
2023/05/16 02:32:20;;;;;;;43.53;27.70;;;;;;;10.64;100.00;97821.28;5070714;28;20215;-75
2023/05/16 02:34:47;;;;;;;44.10;27.37;;;;;;;10.66;100.00;97822.88;5070820;28;20206;-75
2023/05/16 02:37:14;;;;;;;46.37;28.20;;;;;;;10.63;100.00;97823.06;5070740;28;20213;-75
2023/05/16 02:39:45;;;;;;;48.10;29.23;;;;;;;10.71;100.00;97811.94;5070368;28;20217;-75
2023/05/16 02:42:13;;;;;;;46.23;28.10;;;;;;;10.76;100.00;97821.19;5070654;28;20230;-75
2023/05/16 02:44:39;;;;;;;46.47;27.10;;;;;;;10.79;100.00;97817.50;5070894;28;20216;-75
2023/05/16 02:47:06;;;;;;;44.63;27.50;;;;;;;10.77;100.00;97822.88;5071083;28;20205;-75
2023/05/16 02:49:34;;;;;;;46.30;29.00;;;;;;;10.73;100.00;97816.16;5070399;28;20225;-75
2023/05/16 02:52:00;;;;;;;43.67;27.03;;;;;;;10.68;100.00;97822.72;5070636;28;20206;-75
2023/05/16 02:54:27;;;;;;;43.73;27.97;;;;;;;10.62;100.00;97826.69;5070882;28;20211;-75
2023/05/16 02:56:53;;;;;;;46.47;27.03;;;;;;;10.61;100.00;97832.06;5070882;28;20216;-75
2023/05/16 02:59:26;;;;;;;46.53;29.13;;;;;;;10.56;100.00;97837.69;5070371;28;20214;-75
2023/05/16 03:01:53;;;;;;;47.87;28.03;;;;;;;10.60;100.00;97830.38;5070500;28;20711;-75
2023/05/16 03:04:19;;;;;;;47.83;27.50;;;;;;;10.67;100.00;97837.75;5070547;28;20221;-75
2023/05/16 03:06:47;;;;;;;47.50;28.20;;;;;;;10.71;100.00;97833.09;5070850;28;20212;-75
2023/05/16 03:09:13;;;;;;;50.63;28.47;;;;;;;10.74;100.00;97832.84;5070349;28;20208;-75
2023/05/16 03:11:40;;;;;;;50.03;28.97;;;;;;;10.79;100.00;97825.41;5086343;22;20240;-76
2023/05/16 03:14:07;;;;;;;52.97;30.03;;;;;;;10.73;100.00;97829.38;5070978;28;20588;-76
2023/05/16 03:16:35;;;;;;;52.47;30.77;;;;;;;10.71;100.00;97830.44;5070703;28;20220;-77
2023/05/16 03:19:02;;;;;;;55.80;30.07;;;;;;;10.75;100.00;97835.38;5071056;28;20207;-77
2023/05/16 03:21:28;;;;;;;53.13;30.93;;;;;;;10.74;100.00;97825.78;5073362;28;20658;-77
2023/05/16 03:23:57;;;;;;;54.07;31.03;;;;;;;10.82;100.00;97826.03;5074481;28;20223;-76
2023/05/16 03:26:23;;;;;;;54.80;31.50;;;;;;;10.87;100.00;97833.59;5075356;28;20209;-77
2023/05/16 03:28:50;;;;;;;57.10;31.90;;;;;;;10.89;100.00;97834.34;5085795;28;20213;-78
2023/05/16 03:31:17;;;;;;;56.63;31.87;;;;;;;10.88;100.00;97828.22;5086800;28;20232;-78
2023/05/16 03:33:43;;;;;;;55.97;31.33;;;;;;;10.90;100.00;97830.75;5086835;28;20215;-77
2023/05/16 03:36:10;;;;;;;54.93;30.70;;;;;;;10.87;100.00;97836.25;5074488;28;20290;-77
2023/05/16 03:38:37;;;;;;;69.77;35.23;;;;;;;10.80;100.00;97832.38;5074420;28;20207;-76
2023/05/16 03:41:05;;;;;;;64.43;32.73;;;;;;;10.89;100.00;97834.34;5073922;28;20239;-77
2023/05/16 03:43:31;;;;;;;63.30;33.20;;;;;;;10.96;100.00;97832.94;5074026;28;20458;-77
2023/05/16 03:45:58;;;;;;;66.50;34.57;;;;;;;10.95;100.00;97831.25;5074064;28;20227;-76
2023/05/16 03:48:24;;;;;;;62.03;32.60;;;;;;;11.00;100.00;97832.56;5074156;28;20207;-76
2023/05/16 03:50:51;;;;;;;64.33;34.10;;;;;;;11.06;100.00;97839.22;5073774;28;20242;-77
2023/05/16 03:53:17;;;;;;;60.90;33.50;;;;;;;11.02;100.00;97833.28;5073914;28;20229;-77
2023/05/16 03:55:44;;;;;;;62.90;32.60;;;;;;;11.11;100.00;97829.13;5073957;28;20211;-77
2023/05/16 03:58:12;;;;;;;63.13;33.23;;;;;;;11.11;100.00;97831.75;5073786;28;20246;-77
2023/05/16 04:00:38;;;;;;;62.20;33.17;;;;;;;11.12;100.00;97838.75;5073694;28;20258;-76
2023/05/16 04:03:05;;;;;;;55.53;32.50;;;;;;;11.12;100.00;97838.75;5073826;28;20232;-77
2023/05/16 04:05:32;;;;;;;57.90;32.50;;;;;;;11.22;100.00;97837.09;5073880;28;20237;-76
2023/05/16 04:07:58;;;;;;;60.57;32.73;;;;;;;11.18;100.00;97843.59;5073784;28;20224;-75
2023/05/16 04:10:25;;;;;;;68.20;33.67;;;;;;;11.15;100.00;97849.94;5073504;28;20205;-75
2023/05/16 04:12:51;;;;;;;65.33;34.67;;;;;;;11.21;100.00;97851.28;5073538;28;20587;-75
2023/05/16 04:15:19;;;;;;;62.43;33.43;;;;;;;11.22;100.00;97850.31;5073781;28;20214;-77
2023/05/16 04:17:46;;;;;;;63.60;34.03;;;;;;;11.21;100.00;97853.91;5073747;28;20230;-77
2023/05/16 04:20:12;;;;;;;63.70;33.57;;;;;;;11.24;100.00;97859.81;5073400;28;20215;-77
2023/05/16 04:22:39;;;;;;;64.73;33.30;;;;;;;11.21;100.00;97864.50;5073547;28;20223;-77
2023/05/16 04:25:07;;;;;;;65.30;34.03;;;;;;;11.23;100.00;97852.00;5073545;28;20261;-78
2023/05/16 04:27:33;;;;;;;61.47;32.60;;;;;;;11.32;100.00;97861.88;5073254;28;20226;-77
2023/05/16 04:30:00;;;;;;;60.43;32.27;;;;;;;11.40;100.00;97862.13;5073208;28;20253;-77
2023/05/16 04:32:29;;;;;;;56.40;31.13;;;;;;;11.43;100.00;97865.38;5072364;28;20226;-77
2023/05/16 04:34:55;;;;;;;57.73;31.43;;;;;;;11.43;100.00;97864.56;5073249;28;20211;-77
2023/05/16 04:37:22;;;;;;;57.40;30.93;;;;;;;11.40;100.00;97870.06;5073151;28;20230;-77
2023/05/16 04:39:48;;;;;;;64.53;34.10;;;;;;;11.39;100.00;97869.25;5072774;28;20209;-77
2023/05/16 04:42:15;;;;;;;61.87;33.33;;;;;;;11.45;100.00;97870.56;5072733;28;20578;-76
2023/05/16 04:44:42;;;;;;;56.73;31.23;;;;;;;11.45;100.00;97874.06;5073204;28;20301;-76
2023/05/16 04:47:09;;;;;;;57.70;30.77;;;;;;;11.48;100.00;97872.97;5072809;28;20637;-77
2023/05/16 04:49:37;;;;;;;57.43;30.27;;;;;;;11.56;100.00;97876.72;5072437;28;20213;-78
2023/05/16 04:52:04;;;;;;;54.50;30.60;;;;;;;11.60;100.00;97874.69;5072657;28;20352;-77
2023/05/16 04:54:30;;;;;;;56.33;30.90;;;;;;;11.67;100.00;97879.41;5072639;28;20211;-77
2023/05/16 04:56:57;;;;;;;54.80;30.17;;;;;;;11.83;100.00;97884.34;5073168;28;20221;-76
2023/05/16 04:59:23;;;;;;;50.10;28.87;;;;;;;11.91;100.00;97885.44;5072627;28;20276;-77
2023/05/16 05:01:50;;;;;;;46.57;27.83;;;;;;;11.97;100.00;97882.31;5072772;28;20607;-75
2023/05/16 05:04:17;;;;;;;46.90;28.30;;;;;;;12.12;100.00;97890.88;5072740;28;20207;-77
2023/05/16 05:06:44;;;;;;;44.73;26.43;;;;;;;12.18;100.00;97890.38;5072556;28;20269;-76
2023/05/16 05:09:11;;;;;;;41.80;25.03;;;;;;;12.30;100.00;97892.88;5072152;28;20213;-77
2023/05/16 05:11:37;;;;;;;43.87;26.53;;;;;;;12.25;100.00;97894.22;5072433;28;20239;-77
2023/05/16 05:14:04;;;;;;;43.13;26.20;;;;;;;12.26;100.00;97898.53;5072505;28;20585;-77
2023/05/16 05:16:31;;;;;;;41.93;25.67;;;;;;;12.34;100.00;97901.44;5072398;28;20211;-78
2023/05/16 05:18:58;;;;;;;35.53;23.20;;;;;;;12.31;100.00;97899.03;5072414;28;20570;-76
2023/05/16 05:21:24;;;;;;;39.20;25.30;;;;;;;12.26;100.00;97898.53;5071884;28;20317;-76
2023/05/16 05:23:52;;;;;;;38.50;24.27;;;;;;;12.32;100.00;97903.34;5072086;28;20231;-76
2023/05/16 05:26:20;;;;;;;39.53;24.03;;;;;;;12.31;100.00;97901.69;5072220;28;20688;-76
2023/05/16 05:28:48;;;;;;;38.13;24.43;;;;;;;12.26;100.00;97898.53;5072150;28;20267;-75
2023/05/16 05:31:15;;;;;;;44.97;26.53;;;;;;;12.32;100.00;97903.34;5071690;28;20318;-76
2023/05/16 05:33:41;;;;;;;47.87;27.60;;;;;;;12.33;100.00;97915.63;5072017;28;20206;-76
2023/05/16 05:36:09;;;;;;;40.23;25.27;;;;;;;12.34;100.00;97901.44;5071856;28;20211;-76
2023/05/16 05:38:36;;;;;;;43.60;26.77;;;;;;;12.38;100.00;97898.44;5072002;28;20218;-77
2023/05/16 05:41:03;;;;;;;42.00;26.67;;;;;;;12.33;100.00;97895.28;5071588;28;20228;-77
2023/05/16 05:43:30;;;;;;;45.43;26.87;;;;;;;12.39;100.00;97901.91;5072048;28;20238;-77
2023/05/16 05:45:56;;;;;;;45.57;27.37;;;;;;;12.44;100.00;97892.63;5072177;28;20385;-77
2023/05/16 05:48:23;;;;;;;43.70;26.23;;;;;;;12.53;100.00;97896.34;5071851;28;20215;-76
2023/05/16 05:50:51;;;;;;;40.47;25.37;;;;;;;12.48;100.00;97899.34;5071299;28;20223;-78
2023/05/16 05:53:17;;;;;;;43.83;25.47;;;;;;;12.48;100.00;97888.75;5071991;28;20206;-78
2023/05/16 05:55:44;;;;;;;41.10;26.30;;;;;;;12.44;100.00;97897.94;5071646;28;20211;-75
2023/05/16 05:58:11;;;;;;;35.33;22.17;;;;;;;12.53;100.00;97912.25;5071713;28;20208;-75
2023/05/16 06:00:38;;;;;;;42.13;23.83;;;;;;;12.51;100.00;97900.91;5071375;28;20275;-76
2023/05/16 06:03:04;;;;;;;36.40;22.57;;;;;;;12.50;100.00;97909.84;5071299;28;20223;-76
2023/05/16 06:05:31;;;;;;;37.57;23.20;;;;;;;12.54;100.00;97898.03;5071776;28;20246;-75
2023/05/16 06:07:57;;;;;;;36.60;23.10;;;;;;;12.56;100.00;97912.00;5071589;28;20210;-76
2023/05/16 06:10:24;;;;;;;38.40;23.13;;;;;;;12.62;100.00;97909.72;5070983;28;20208;-76
2023/05/16 06:12:51;;;;;;;42.00;23.90;;;;;;;12.59;100.00;97922.38;5071402;28;20203;-75
2023/05/16 06:15:19;;;;;;;35.53;23.03;;;;;;;12.53;100.00;97922.88;5071372;28;20214;-76
2023/05/16 06:17:45;;;;;;;35.30;22.97;;;;;;;12.59;100.00;97922.38;5071440;28;20207;-76
2023/05/16 06:20:12;;;;;;;38.37;24.10;;;;;;;12.69;100.00;97918.84;5071277;28;20230;-76
2023/05/16 06:22:39;;;;;;;33.80;22.37;;;;;;;12.82;100.00;97918.69;5071530;28;20615;-75
2023/05/16 06:25:06;;;;;;;33.87;22.13;;;;;;;12.94;100.00;97923.84;5071465;28;20219;-76
2023/05/16 06:27:33;;;;;;;34.17;22.00;;;;;;;12.96;100.00;97921.09;5071446;28;20301;-75
2023/05/16 06:29:59;;;;;;;36.00;22.23;;;;;;;13.12;100.00;97932.13;5071106;28;20592;-76
2023/05/16 06:32:27;;;;;;;34.67;21.30;;;;;;;13.21;100.00;97929.53;5071170;28;20247;-77
2023/05/16 06:34:54;;;;;;;33.30;22.03;;;;;;;13.12;100.00;97932.13;5071437;28;20214;-77
2023/05/16 06:37:22;;;;;;;28.30;20.03;;;;;;;13.14;100.00;97931.03;5071475;28;20215;-76
2023/05/16 06:39:49;;;;;;;34.90;21.80;;;;;;;13.30;100.00;97938.56;5071117;28;20298;-78
2023/05/16 06:42:15;;;;;;;30.30;20.70;;;;;;;13.31;100.00;97948.19;5071176;28;20224;-75
2023/05/16 06:44:42;;;;;;;32.90;21.27;;;;;;;13.24;100.00;97952.34;5071091;28;20236;-75
2023/05/16 06:47:08;;;;;;;32.77;20.93;;;;;;;13.22;100.00;97944.53;5071381;28;20220;-75
2023/05/16 06:49:36;;;;;;;32.80;19.93;;;;;;;13.20;100.00;97951.75;5070929;28;20220;-75
2023/05/16 06:52:03;;;;;;;31.37;20.67;;;;;;;13.14;100.00;97940.81;5071294;28;20235;-76
2023/05/16 06:54:29;;;;;;;28.47;20.03;;;;;;;13.13;100.00;97947.91;5071385;28;20313;-76
2023/05/16 06:56:56;;;;;;;25.97;18.10;;;;;;;13.12;100.00;97940.06;5075049;28;20208;-76
2023/05/16 06:59:22;;;;;;;25.60;18.90;;;;;;;13.13;100.00;97941.75;5080907;28;20211;-76
2023/05/16 07:01:49;;;;;;;27.10;18.10;;;;;;;12.97;100.00;97939.53;5080370;28;20232;-76
2023/05/16 07:04:15;;;;;;;25.80;17.93;;;;;;;12.99;100.00;97947.38;5080181;28;20709;-75
2023/05/16 07:06:43;;;;;;;28.13;18.80;;;;;;;12.85;100.00;97956.41;5075141;28;20208;-75
2023/05/16 07:09:10;;;;;;;27.07;19.17;;;;;;;12.83;100.00;97962.81;5074545;28;20215;-75
2023/05/16 07:11:37;;;;;;;25.20;16.87;;;;;;;12.76;100.00;97951.00;5074588;28;20303;-75
2023/05/16 07:14:03;;;;;;;24.80;17.17;;;;;;;12.79;100.00;97958.72;5074706;28;20265;-76
2023/05/16 07:16:30;;;;;;;23.70;16.63;;;;;;;12.69;100.00;97968.38;5074888;28;20213;-75
2023/05/16 07:18:56;;;;;;;27.20;17.70;;;;;;;12.66;100.00;97968.63;5074824;28;20210;-77
2023/05/16 07:21:23;;;;;;;20.33;14.87;;;;;;;12.65;100.00;97961.66;5074464;28;20269;-75
2023/05/16 07:23:51;;;;;;;23.63;16.23;;;;;;;12.67;100.00;97959.72;5074504;28;20320;-74
2023/05/16 07:26:17;;;;;;;20.97;15.20;;;;;;;12.65;100.00;97959.81;5074581;28;20217;-77
2023/05/16 07:28:44;;;;;;;19.87;14.60;;;;;;;12.76;100.00;97964.25;5074357;28;20222;-77
2023/05/16 07:31:10;;;;;;;18.10;13.20;;;;;;;12.71;100.00;97958.50;5074354;28;20237;-76
2023/05/16 07:33:37;;;;;;;16.93;12.60;;;;;;;12.78;100.00;97967.66;5074625;28;20229;-77
2023/05/16 07:36:04;;;;;;;16.40;13.00;;;;;;;12.87;100.00;97964.25;5074603;28;20689;-77
2023/05/16 07:38:31;;;;;;;15.67;12.60;;;;;;;13.02;100.00;97960.41;5074488;28;20583;-75
2023/05/16 07:40:59;;;;;;;19.30;12.50;;;;;;;13.11;100.00;97967.59;5074556;28;20227;-77
2023/05/16 07:43:25;;;;;;;16.33;12.40;;;;;;;13.18;100.00;97963.47;5074379;28;20245;-77
2023/05/16 07:45:52;;;;;;;16.30;12.37;;;;;;;13.28;100.00;97959.09;5074457;28;20230;-77
2023/05/16 07:48:18;;;;;;;14.27;11.53;;;;;;;13.34;99.94;97967.41;5074433;28;20306;-77
2023/05/16 07:50:45;;;;;;;13.87;11.13;;;;;;;13.36;98.76;97962.78;5073860;28;20227;-75
2023/05/16 07:53:11;;;;;;;13.63;11.67;;;;;;;13.35;98.81;97965.56;5074105;28;20224;-76
2023/05/16 07:55:38;;;;;;;14.93;11.93;;;;;;;13.28;99.16;97973.22;5074194;28;20583;-75
2023/05/16 07:58:06;;;;;;;15.50;10.77;;;;;;;13.48;99.69;97972.41;5074474;28;20546;-76
2023/05/16 08:00:33;;;;;;;13.67;10.80;;;;;;;13.40;97.84;97968.69;5073747;28;20263;-76
2023/05/16 08:02:59;;;;;;;13.50;11.07;;;;;;;13.32;97.56;97968.50;5073899;28;20214;-75
2023/05/16 08:05:26;;;;;;;13.50;10.93;;;;;;;13.28;97.48;97967.06;5073876;28;20203;-75
2023/05/16 08:07:52;;;;;;;12.73;9.73;;;;;;;13.34;98.05;97979.81;5072462;28;20211;-76
2023/05/16 08:10:19;;;;;;;12.47;10.07;;;;;;;13.29;97.81;97982.00;5073230;28;20206;-75
2023/05/16 08:12:47;;;;;;;13.17;10.73;;;;;;;13.24;97.71;97985.03;5073622;28;20215;-76
2023/05/16 08:15:15;;;;;;;12.37;10.17;;;;;;;13.00;97.93;97987.03;5073899;28;20292;-75
2023/05/16 08:17:42;;;;;;;13.30;10.47;;;;;;;13.17;99.05;97983.00;5073633;28;20583;-76
2023/05/16 08:20:09;;;;;;;13.53;11.03;;;;;;;13.15;98.06;97984.94;5073373;28;20207;-76
2023/05/16 08:22:35;;;;;;;14.47;10.40;;;;;;;13.16;98.49;97989.28;5073595;28;20208;-76
2023/05/16 08:25:02;;;;;;;15.57;11.33;;;;;;;13.22;99.46;97996.75;5073381;28;20227;-76
2023/05/16 08:27:29;;;;;;;15.73;11.10;;;;;;;13.22;99.83;97986.13;5073729;28;20207;-76
2023/05/16 08:29:55;;;;;;;13.40;10.87;;;;;;;13.24;100.00;97989.50;5073219;28;20212;-76
2023/05/16 08:32:23;;;;;;;17.50;12.27;;;;;;;13.28;100.00;98002.41;5073243;28;20232;-76
2023/05/16 08:34:50;;;;;;;18.27;12.97;;;;;;;12.92;100.00;98004.50;5073468;28;20314;-76
2023/05/16 08:37:16;;;;;;;16.20;12.67;;;;;;;12.88;100.00;98008.38;5073315;28;20586;-76
2023/05/16 08:39:43;;;;;;;16.87;12.90;;;;;;;12.81;100.00;98007.16;5072842;28;20246;-76
2023/05/16 08:42:09;;;;;;;19.83;14.73;;;;;;;12.60;100.00;98015.03;5073095;28;20231;-76
2023/05/16 08:44:36;;;;;;;19.73;14.07;;;;;;;12.61;100.00;98016.72;5073528;28;20240;-76
2023/05/16 08:47:11;;;;;;;19.33;14.27;;;;;;;12.56;100.00;98018.91;5074272;28;20214;-76
2023/05/16 08:49:40;;;;;;;18.93;13.80;;;;;;;12.56;100.00;98016.25;5073875;28;20268;-76
2023/05/16 08:52:08;;;;;;;20.10;14.33;;;;;;;12.51;100.00;98020.22;5074260;28;20234;-77
2023/05/16 08:54:36;;;;;;;21.40;14.67;;;;;;;12.53;100.00;98015.66;5074632;28;20456;-77
2023/05/16 08:57:03;;;;;;;21.27;15.03;;;;;;;12.63;100.00;98021.88;5075036;28;20210;-76
2023/05/16 08:59:31;;;;;;;20.77;14.57;;;;;;;12.79;100.00;98025.03;5073208;28;20215;-76
2023/05/16 09:01:58;;;;;;;21.57;15.73;;;;;;;12.84;100.00;98023.69;5072752;28;20227;-76
2023/05/16 09:04:26;;;;;;;23.47;15.63;;;;;;;12.69;100.00;98029.38;5072525;28;20238;-77
2023/05/16 09:06:54;;;;;;;21.13;14.70;;;;;;;12.84;100.00;98026.34;5072861;28;20272;-77
2023/05/16 09:09:20;;;;;;;21.20;15.13;;;;;;;12.77;100.00;98038.41;5072338;28;20212;-76
2023/05/16 09:11:47;;;;;;;22.23;15.47;;;;;;;12.76;100.00;98027.91;5078173;22;20228;-82
2023/05/16 09:14:14;;;;;;;19.90;15.03;;;;;;;12.74;100.00;98038.66;5052214;28;20218;-82
2023/05/16 09:16:40;;;;;;;22.43;15.47;;;;;;;12.76;100.00;98033.22;5052123;28;20235;-82
2023/05/16 09:19:07;;;;;;;24.83;16.67;;;;;;;12.71;100.00;98032.75;5051285;28;20223;-82
2023/05/16 09:21:34;;;;;;;25.37;16.60;;;;;;;12.65;100.00;98036.72;5051875;28;20238;-82
2023/05/16 09:24:05;;;;;;;22.83;16.13;;;;;;;12.68;100.00;98038.28;5052031;28;20266;-82
2023/05/16 09:26:32;;;;;;;23.93;16.50;;;;;;;12.88;100.00;98029.59;5051816;28;20216;-82
2023/05/16 09:28:59;;;;;;;26.43;15.90;;;;;;;12.98;100.00;98023.47;5051876;28;20319;-82
2023/05/16 09:31:29;;;;;;;23.07;16.73;;;;;;;13.19;100.00;98024.38;5051502;28;20228;-82
2023/05/16 09:33:56;;;;;;;23.63;16.07;;;;;;;13.49;100.00;98026.31;5051789;28;20208;-82
2023/05/16 09:36:23;;;;;;;25.43;16.37;;;;;;;13.69;100.00;98018.41;5051925;28;20595;-82
2023/05/16 09:38:51;;;;;;;23.53;17.17;;;;;;;13.63;100.00;98021.56;5051643;28;20204;-82
2023/05/16 09:41:19;;;;;;;23.93;16.47;;;;;;;13.56;100.00;98022.22;5051262;28;20263;-82
2023/05/16 09:43:46;;;;;;;24.07;17.43;;;;;;;13.30;100.00;98023.50;5051541;28;20262;-82
2023/05/16 09:46:14;;;;;;;23.43;16.70;;;;;;;13.32;100.00;98025.06;5051444;28;20208;-82
2023/05/16 09:48:41;;;;;;;23.37;16.47;;;;;;;13.24;100.00;98031.97;5051819;28;20208;-82
2023/05/16 09:51:08;;;;;;;22.63;15.77;;;;;;;13.22;100.00;98017.97;5051047;28;20714;-82
2023/05/16 09:53:34;;;;;;;25.30;16.57;;;;;;;13.20;100.00;98012.78;5051348;28;20651;-82
2023/05/16 09:56:03;;;;;;;22.80;16.50;;;;;;;13.27;100.00;98021.94;5051517;28;20253;-82
2023/05/16 09:58:33;;;;;;;21.90;15.90;;;;;;;13.41;100.00;98011.06;5051372;28;20215;-82
2023/05/16 10:01:01;;;;;;;27.00;17.80;;;;;;;13.58;100.00;98010.47;5051132;28;20335;-82
2023/05/16 10:03:28;;;;;;;26.27;17.10;;;;;;;13.79;100.00;98002.53;5051350;28;20608;-81
2023/05/16 10:05:55;;;;;;;24.27;16.30;;;;;;;14.03;100.00;98000.47;5051129;28;20219;-82
2023/05/16 10:08:24;;;;;;;24.00;16.20;;;;;;;14.11;97.79;97993.53;5051256;28;20216;-82
2023/05/16 10:10:52;;;;;;;23.97;16.00;;;;;;;14.25;97.72;98003.84;5050585;28;20495;-81
2023/05/16 10:13:20;;;;;;;25.33;16.90;;;;;;;14.25;96.81;98000.34;5050102;28;20209;-79
2023/05/16 10:15:48;;;;;;;25.80;15.83;;;;;;;14.28;97.33;98000.06;5051217;28;20217;-80
2023/05/16 10:18:18;;;;;;;23.23;15.95;;;;;;;14.28;98.06;98005.38;5051132;28;20444;-86
2023/05/16 10:20:48;;;;;;;21.47;15.30;;;;;;;14.28;95.03;97995.63;5050890;28;20296;-86
2023/05/16 10:23:17;;;;;;;20.63;15.13;;;;;;;14.32;96.86;97996.19;5051153;28;20301;-83
2023/05/16 10:25:45;;;;;;;19.60;13.87;;;;;;;14.46;95.27;97978.06;5050978;28;20229;-83
2023/05/16 10:28:13;;;;;;;21.90;14.63;;;;;;;14.59;94.27;97991.97;5050837;28;20205;-80
2023/05/16 10:30:42;;;;;;;23.67;15.40;;;;;;;14.57;96.39;97999.25;5049865;28;20267;-79
2023/05/16 10:33:12;;;;;;;21.00;14.93;;;;;;;14.56;94.25;97996.72;5050968;28;20652;-79
2023/05/16 10:35:38;;;;;;;21.37;14.93;;;;;;;14.40;95.14;97999.00;5050898;28;20211;-87
2023/05/16 10:38:07;;;;;;;22.33;14.93;;;;;;;14.22;96.69;98000.59;5050964;28;20216;-89
2023/05/16 10:40:34;;;;;;;20.93;13.37;;;;;;;14.08;97.52;98008.88;5050860;28;20208;-86
2023/05/16 10:43:02;;;;;;;22.10;14.07;;;;;;;13.95;97.77;97997.63;5051142;28;20205;-90
2023/05/16 10:45:30;;;;;;;20.57;14.27;;;;;;;13.93;98.05;98010.19;5051124;28;20294;-88
2023/05/16 10:47:58;;;;;;;21.07;14.30;;;;;;;13.74;99.19;98015.38;5050945;28;20220;-87
2023/05/16 10:50:37;;;;;;;17.77;12.37;;;;;;;13.64;97.76;98011.78;5050322;28;20210;-83
2023/05/16 10:53:14;;;;;;;16.50;10.97;;;;;;;13.52;98.31;98012.81;5050768;28;20208;-84
2023/05/16 10:55:45;;;;;;;16.53;11.50;;;;;;;13.32;99.18;98014.44;5050898;28;20204;-84
2023/05/16 10:58:11;;;;;;;16.03;10.60;;;;;;;13.14;100.00;98020.41;5050967;28;20227;-84
2023/05/16 11:00:40;;;;;;;17.27;10.80;;;;;;;12.86;100.00;98023.56;5050296;28;20681;-87
2023/05/16 11:03:19;;;;;;;18.80;12.07;;;;;;;12.63;100.00;98030.69;5050617;28;20258;-87
2023/05/16 11:05:52;;;;;;;17.70;11.20;;;;;;;12.51;100.00;98033.47;5050766;28;20635;-87
2023/05/16 11:08:19;;;;;;;16.17;10.93;;;;;;;12.41;100.00;98041.28;5051151;28;20211;-86
2023/05/16 11:10:46;;;;;;;16.67;10.43;;;;;;;12.34;100.00;98045.38;5049351;28;20212;-85